sensor_id;sensor_type;location;lat;lon;timestamp;P1;durP1;ratioP1;P2;durP2;ratioP2
61905;SDS011;47863;55.766;37.672;2023-07-30T00:01:32;14.00;;;6.10;;
61905;SDS011;47863;55.766;37.672;2023-07-30T00:03:58;11.30;;;6.68;;
61905;SDS011;47863;55.766;37.672;2023-07-30T00:06:24;14.80;;;6.72;;
61905;SDS011;47863;55.766;37.672;2023-07-30T00:08:50;14.18;;;6.90;;
61905;SDS011;47863;55.766;37.672;2023-07-30T00:11:16;16.42;;;6.80;;
61905;SDS011;47863;55.766;37.672;2023-07-30T00:13:42;13.20;;;6.10;;
61905;SDS011;47863;55.766;37.672;2023-07-30T00:16:07;17.17;;;6.85;;
61905;SDS011;47863;55.766;37.672;2023-07-30T00:18:33;15.85;;;6.40;;
61905;SDS011;47863;55.766;37.672;2023-07-30T00:20:59;14.27;;;6.28;;
61905;SDS011;47863;55.766;37.672;2023-07-30T00:23:24;14.10;;;6.40;;
61905;SDS011;47863;55.766;37.672;2023-07-30T00:25:50;11.80;;;5.70;;
61905;SDS011;47863;55.766;37.672;2023-07-30T00:28:16;10.63;;;6.28;;
61905;SDS011;47863;55.766;37.672;2023-07-30T00:30:42;12.93;;;6.90;;
61905;SDS011;47863;55.766;37.672;2023-07-30T00:33:08;15.82;;;6.43;;
61905;SDS011;47863;55.766;37.672;2023-07-30T00:35:34;14.18;;;6.07;;
61905;SDS011;47863;55.766;37.672;2023-07-30T00:38:00;11.35;;;5.95;;
61905;SDS011;47863;55.766;37.672;2023-07-30T00:40:25;9.95;;;6.13;;
61905;SDS011;47863;55.766;37.672;2023-07-30T00:42:51;11.48;;;5.93;;
61905;SDS011;47863;55.766;37.672;2023-07-30T00:45:16;10.18;;;5.88;;
61905;SDS011;47863;55.766;37.672;2023-07-30T00:47:42;10.00;;;5.97;;
61905;SDS011;47863;55.766;37.672;2023-07-30T00:50:09;9.95;;;5.22;;
61905;SDS011;47863;55.766;37.672;2023-07-30T00:52:36;11.63;;;5.65;;
61905;SDS011;47863;55.766;37.672;2023-07-30T00:55:02;10.32;;;6.05;;
61905;SDS011;47863;55.766;37.672;2023-07-30T00:57:30;10.48;;;6.15;;
61905;SDS011;47863;55.766;37.672;2023-07-30T00:59:57;10.27;;;6.00;;
61905;SDS011;47863;55.766;37.672;2023-07-30T01:02:22;12.35;;;5.95;;
61905;SDS011;47863;55.766;37.672;2023-07-30T01:04:48;11.90;;;6.07;;
61905;SDS011;47863;55.766;37.672;2023-07-30T01:07:15;10.23;;;5.85;;
61905;SDS011;47863;55.766;37.672;2023-07-30T01:09:40;11.10;;;5.63;;
61905;SDS011;47863;55.766;37.672;2023-07-30T01:12:07;9.55;;;5.65;;
61905;SDS011;47863;55.766;37.672;2023-07-30T01:14:33;10.77;;;5.35;;
61905;SDS011;47863;55.766;37.672;2023-07-30T01:17:03;10.15;;;5.20;;
61905;SDS011;47863;55.766;37.672;2023-07-30T01:19:29;10.48;;;5.70;;
61905;SDS011;47863;55.766;37.672;2023-07-30T01:21:56;11.40;;;5.75;;
61905;SDS011;47863;55.766;37.672;2023-07-30T01:24:21;10.05;;;5.82;;
61905;SDS011;47863;55.766;37.672;2023-07-30T01:26:55;12.07;;;5.53;;
61905;SDS011;47863;55.766;37.672;2023-07-30T01:29:31;9.07;;;5.00;;
61905;SDS011;47863;55.766;37.672;2023-07-30T01:32:04;11.05;;;6.05;;
61905;SDS011;47863;55.766;37.672;2023-07-30T01:34:36;9.05;;;5.38;;
61905;SDS011;47863;55.766;37.672;2023-07-30T01:37:04;8.48;;;4.85;;
61905;SDS011;47863;55.766;37.672;2023-07-30T01:39:33;13.00;;;6.25;;
61905;SDS011;47863;55.766;37.672;2023-07-30T01:42:03;10.77;;;5.05;;
61905;SDS011;47863;55.766;37.672;2023-07-30T01:44:29;9.30;;;5.38;;
61905;SDS011;47863;55.766;37.672;2023-07-30T01:46:54;11.27;;;5.43;;
61905;SDS011;47863;55.766;37.672;2023-07-30T01:49:20;11.27;;;5.32;;
61905;SDS011;47863;55.766;37.672;2023-07-30T01:51:46;11.38;;;5.28;;
61905;SDS011;47863;55.766;37.672;2023-07-30T01:54:11;10.50;;;5.70;;
61905;SDS011;47863;55.766;37.672;2023-07-30T01:56:37;10.90;;;5.13;;
61905;SDS011;47863;55.766;37.672;2023-07-30T01:59:02;9.70;;;5.55;;
61905;SDS011;47863;55.766;37.672;2023-07-30T02:01:28;10.35;;;5.38;;
61905;SDS011;47863;55.766;37.672;2023-07-30T02:03:53;8.90;;;5.32;;
61905;SDS011;47863;55.766;37.672;2023-07-30T02:06:19;8.80;;;5.07;;
61905;SDS011;47863;55.766;37.672;2023-07-30T02:08:44;8.98;;;5.25;;
61905;SDS011;47863;55.766;37.672;2023-07-30T02:11:10;12.52;;;5.07;;
61905;SDS011;47863;55.766;37.672;2023-07-30T02:13:35;8.38;;;5.20;;
61905;SDS011;47863;55.766;37.672;2023-07-30T02:16:01;8.52;;;5.30;;
61905;SDS011;47863;55.766;37.672;2023-07-30T02:18:27;8.55;;;4.78;;
61905;SDS011;47863;55.766;37.672;2023-07-30T02:20:52;9.45;;;5.60;;
61905;SDS011;47863;55.766;37.672;2023-07-30T02:23:18;8.27;;;4.80;;
61905;SDS011;47863;55.766;37.672;2023-07-30T02:25:44;10.35;;;6.57;;
61905;SDS011;47863;55.766;37.672;2023-07-30T02:28:09;8.32;;;5.05;;
61905;SDS011;47863;55.766;37.672;2023-07-30T02:30:35;8.30;;;4.28;;
61905;SDS011;47863;55.766;37.672;2023-07-30T02:33:01;11.40;;;5.35;;
61905;SDS011;47863;55.766;37.672;2023-07-30T02:35:27;8.45;;;4.15;;
61905;SDS011;47863;55.766;37.672;2023-07-30T02:37:52;8.70;;;4.65;;
61905;SDS011;47863;55.766;37.672;2023-07-30T02:40:18;6.32;;;4.15;;
61905;SDS011;47863;55.766;37.672;2023-07-30T02:42:43;9.88;;;4.22;;
61905;SDS011;47863;55.766;37.672;2023-07-30T02:45:09;9.32;;;4.38;;
61905;SDS011;47863;55.766;37.672;2023-07-30T02:47:35;8.05;;;4.40;;
61905;SDS011;47863;55.766;37.672;2023-07-30T02:50:01;9.30;;;4.00;;
61905;SDS011;47863;55.766;37.672;2023-07-30T02:52:30;8.32;;;4.38;;
61905;SDS011;47863;55.766;37.672;2023-07-30T02:54:56;10.80;;;4.65;;
61905;SDS011;47863;55.766;37.672;2023-07-30T02:57:21;7.53;;;4.03;;
61905;SDS011;47863;55.766;37.672;2023-07-30T02:59:47;7.55;;;4.32;;
61905;SDS011;47863;55.766;37.672;2023-07-30T03:02:12;8.63;;;5.03;;
61905;SDS011;47863;55.766;37.672;2023-07-30T03:04:38;8.68;;;4.47;;
61905;SDS011;47863;55.766;37.672;2023-07-30T03:07:03;7.13;;;4.18;;
61905;SDS011;47863;55.766;37.672;2023-07-30T03:09:29;9.80;;;4.43;;
61905;SDS011;47863;55.766;37.672;2023-07-30T03:11:55;9.95;;;4.32;;
61905;SDS011;47863;55.766;37.672;2023-07-30T03:14:20;8.23;;;4.20;;
61905;SDS011;47863;55.766;37.672;2023-07-30T03:16:47;8.18;;;4.32;;
61905;SDS011;47863;55.766;37.672;2023-07-30T03:19:13;8.70;;;4.35;;
61905;SDS011;47863;55.766;37.672;2023-07-30T03:21:39;9.48;;;5.20;;
61905;SDS011;47863;55.766;37.672;2023-07-30T03:24:04;7.80;;;4.28;;
61905;SDS011;47863;55.766;37.672;2023-07-30T03:26:30;6.05;;;3.83;;
61905;SDS011;47863;55.766;37.672;2023-07-30T03:28:56;6.30;;;3.67;;
61905;SDS011;47863;55.766;37.672;2023-07-30T03:31:21;4.95;;;3.20;;
61905;SDS011;47863;55.766;37.672;2023-07-30T03:33:47;5.80;;;3.70;;
61905;SDS011;47863;55.766;37.672;2023-07-30T03:36:12;7.38;;;3.53;;
61905;SDS011;47863;55.766;37.672;2023-07-30T03:38:39;8.85;;;3.42;;
61905;SDS011;47863;55.766;37.672;2023-07-30T03:41:05;5.60;;;3.60;;
61905;SDS011;47863;55.766;37.672;2023-07-30T03:43:34;10.65;;;6.07;;
61905;SDS011;47863;55.766;37.672;2023-07-30T03:46:00;7.00;;;3.78;;
61905;SDS011;47863;55.766;37.672;2023-07-30T03:48:26;5.47;;;3.17;;
61905;SDS011;47863;55.766;37.672;2023-07-30T03:50:53;6.60;;;3.50;;
61905;SDS011;47863;55.766;37.672;2023-07-30T03:53:19;7.72;;;4.78;;
61905;SDS011;47863;55.766;37.672;2023-07-30T03:55:44;5.97;;;3.67;;
61905;SDS011;47863;55.766;37.672;2023-07-30T03:58:10;8.85;;;3.80;;
61905;SDS011;47863;55.766;37.672;2023-07-30T04:00:36;5.07;;;2.97;;
61905;SDS011;47863;55.766;37.672;2023-07-30T04:03:01;7.97;;;3.53;;
61905;SDS011;47863;55.766;37.672;2023-07-30T04:05:27;5.00;;;3.20;;
61905;SDS011;47863;55.766;37.672;2023-07-30T04:07:53;5.50;;;2.85;;
61905;SDS011;47863;55.766;37.672;2023-07-30T04:10:18;6.15;;;3.00;;
61905;SDS011;47863;55.766;37.672;2023-07-30T04:12:45;4.57;;;2.90;;
61905;SDS011;47863;55.766;37.672;2023-07-30T04:15:11;5.55;;;3.13;;
61905;SDS011;47863;55.766;37.672;2023-07-30T04:17:36;6.60;;;3.20;;
61905;SDS011;47863;55.766;37.672;2023-07-30T04:20:03;4.72;;;2.88;;
61905;SDS011;47863;55.766;37.672;2023-07-30T04:22:30;5.05;;;2.70;;
61905;SDS011;47863;55.766;37.672;2023-07-30T04:24:56;4.00;;;2.40;;
61905;SDS011;47863;55.766;37.672;2023-07-30T04:27:21;5.25;;;2.58;;
61905;SDS011;47863;55.766;37.672;2023-07-30T04:29:47;4.60;;;2.72;;
61905;SDS011;47863;55.766;37.672;2023-07-30T04:32:12;8.50;;;3.70;;
61905;SDS011;47863;55.766;37.672;2023-07-30T04:34:38;4.22;;;2.70;;
61905;SDS011;47863;55.766;37.672;2023-07-30T04:37:04;7.88;;;3.17;;
61905;SDS011;47863;55.766;37.672;2023-07-30T04:39:32;4.68;;;2.88;;
61905;SDS011;47863;55.766;37.672;2023-07-30T04:41:58;5.78;;;3.47;;
61905;SDS011;47863;55.766;37.672;2023-07-30T04:44:23;6.90;;;3.42;;
61905;SDS011;47863;55.766;37.672;2023-07-30T04:46:49;6.45;;;3.05;;
61905;SDS011;47863;55.766;37.672;2023-07-30T04:49:15;6.07;;;3.20;;
61905;SDS011;47863;55.766;37.672;2023-07-30T04:51:41;4.28;;;2.97;;
61905;SDS011;47863;55.766;37.672;2023-07-30T04:54:06;5.60;;;3.10;;
61905;SDS011;47863;55.766;37.672;2023-07-30T04:56:32;6.13;;;3.25;;
61905;SDS011;47863;55.766;37.672;2023-07-30T04:58:57;5.07;;;2.88;;
61905;SDS011;47863;55.766;37.672;2023-07-30T05:01:24;4.72;;;2.80;;
61905;SDS011;47863;55.766;37.672;2023-07-30T05:03:50;4.00;;;2.55;;
61905;SDS011;47863;55.766;37.672;2023-07-30T05:06:15;5.68;;;2.80;;
61905;SDS011;47863;55.766;37.672;2023-07-30T05:08:41;4.10;;;2.13;;
61905;SDS011;47863;55.766;37.672;2023-07-30T05:11:07;3.63;;;2.60;;
61905;SDS011;47863;55.766;37.672;2023-07-30T05:13:32;7.07;;;2.50;;
61905;SDS011;47863;55.766;37.672;2023-07-30T05:15:58;6.32;;;2.78;;
61905;SDS011;47863;55.766;37.672;2023-07-30T05:18:24;4.93;;;2.50;;
61905;SDS011;47863;55.766;37.672;2023-07-30T05:20:49;5.68;;;2.65;;
61905;SDS011;47863;55.766;37.672;2023-07-30T05:23:15;3.83;;;2.70;;
61905;SDS011;47863;55.766;37.672;2023-07-30T05:25:41;3.55;;;2.13;;
61905;SDS011;47863;55.766;37.672;2023-07-30T05:28:06;5.35;;;2.58;;
61905;SDS011;47863;55.766;37.672;2023-07-30T05:30:32;4.28;;;2.42;;
61905;SDS011;47863;55.766;37.672;2023-07-30T05:32:58;4.32;;;2.30;;
61905;SDS011;47863;55.766;37.672;2023-07-30T05:35:23;4.95;;;2.67;;
61905;SDS011;47863;55.766;37.672;2023-07-30T05:37:49;3.85;;;2.35;;
61905;SDS011;47863;55.766;37.672;2023-07-30T05:40:14;4.63;;;2.08;;
61905;SDS011;47863;55.766;37.672;2023-07-30T05:42:40;4.95;;;2.55;;
61905;SDS011;47863;55.766;37.672;2023-07-30T05:45:06;3.58;;;2.25;;
61905;SDS011;47863;55.766;37.672;2023-07-30T05:47:32;4.43;;;2.13;;
61905;SDS011;47863;55.766;37.672;2023-07-30T05:49:57;5.13;;;2.53;;
61905;SDS011;47863;55.766;37.672;2023-07-30T05:52:23;6.30;;;2.50;;
61905;SDS011;47863;55.766;37.672;2023-07-30T05:54:49;7.90;;;3.60;;
61905;SDS011;47863;55.766;37.672;2023-07-30T05:57:14;5.05;;;2.70;;
61905;SDS011;47863;55.766;37.672;2023-07-30T05:59:40;4.47;;;2.30;;
61905;SDS011;47863;55.766;37.672;2023-07-30T06:02:05;4.07;;;2.30;;
61905;SDS011;47863;55.766;37.672;2023-07-30T06:04:31;4.95;;;2.65;;
61905;SDS011;47863;55.766;37.672;2023-07-30T06:06:59;4.47;;;2.28;;
61905;SDS011;47863;55.766;37.672;2023-07-30T06:09:25;4.35;;;2.15;;
61905;SDS011;47863;55.766;37.672;2023-07-30T06:11:50;5.68;;;2.13;;
61905;SDS011;47863;55.766;37.672;2023-07-30T06:14:16;3.85;;;2.10;;
61905;SDS011;47863;55.766;37.672;2023-07-30T06:16:42;3.72;;;2.15;;
61905;SDS011;47863;55.766;37.672;2023-07-30T06:19:08;4.47;;;1.98;;
61905;SDS011;47863;55.766;37.672;2023-07-30T06:21:34;3.05;;;1.98;;
61905;SDS011;47863;55.766;37.672;2023-07-30T06:23:59;5.53;;;2.20;;
61905;SDS011;47863;55.766;37.672;2023-07-30T06:26:25;5.20;;;2.53;;
61905;SDS011;47863;55.766;37.672;2023-07-30T06:28:51;3.35;;;2.17;;
61905;SDS011;47863;55.766;37.672;2023-07-30T06:31:16;3.75;;;2.42;;
61905;SDS011;47863;55.766;37.672;2023-07-30T06:33:42;4.57;;;2.03;;
61905;SDS011;47863;55.766;37.672;2023-07-30T06:36:07;5.18;;;2.80;;
61905;SDS011;47863;55.766;37.672;2023-07-30T06:38:33;3.67;;;2.25;;
61905;SDS011;47863;55.766;37.672;2023-07-30T06:40:59;5.18;;;2.40;;
61905;SDS011;47863;55.766;37.672;2023-07-30T06:43:24;3.53;;;2.35;;
61905;SDS011;47863;55.766;37.672;2023-07-30T06:45:50;4.95;;;2.10;;
61905;SDS011;47863;55.766;37.672;2023-07-30T06:48:15;6.82;;;2.40;;
61905;SDS011;47863;55.766;37.672;2023-07-30T06:50:41;3.85;;;2.55;;
61905;SDS011;47863;55.766;37.672;2023-07-30T06:53:07;4.05;;;2.13;;
61905;SDS011;47863;55.766;37.672;2023-07-30T06:55:32;4.82;;;2.20;;
61905;SDS011;47863;55.766;37.672;2023-07-30T06:57:58;3.15;;;1.90;;
61905;SDS011;47863;55.766;37.672;2023-07-30T07:00:24;3.92;;;2.40;;
61905;SDS011;47863;55.766;37.672;2023-07-30T07:02:50;4.30;;;2.15;;
61905;SDS011;47863;55.766;37.672;2023-07-30T07:05:16;3.08;;;1.92;;
61905;SDS011;47863;55.766;37.672;2023-07-30T07:07:42;5.85;;;2.17;;
61905;SDS011;47863;55.766;37.672;2023-07-30T07:10:07;4.25;;;1.95;;
61905;SDS011;47863;55.766;37.672;2023-07-30T07:12:36;4.55;;;2.10;;
61905;SDS011;47863;55.766;37.672;2023-07-30T07:15:03;3.22;;;2.10;;
61905;SDS011;47863;55.766;37.672;2023-07-30T07:17:32;3.45;;;1.83;;
61905;SDS011;47863;55.766;37.672;2023-07-30T07:19:58;3.10;;;1.85;;
61905;SDS011;47863;55.766;37.672;2023-07-30T07:22:24;3.55;;;2.38;;
61905;SDS011;47863;55.766;37.672;2023-07-30T07:24:51;4.03;;;1.90;;
61905;SDS011;47863;55.766;37.672;2023-07-30T07:27:21;3.33;;;1.65;;
61905;SDS011;47863;55.766;37.672;2023-07-30T07:29:49;4.05;;;1.85;;
61905;SDS011;47863;55.766;37.672;2023-07-30T07:32:15;4.35;;;2.25;;
61905;SDS011;47863;55.766;37.672;2023-07-30T07:34:40;3.95;;;2.00;;
61905;SDS011;47863;55.766;37.672;2023-07-30T07:37:06;2.92;;;1.73;;
61905;SDS011;47863;55.766;37.672;2023-07-30T07:39:32;3.58;;;2.13;;
61905;SDS011;47863;55.766;37.672;2023-07-30T07:41:58;3.97;;;1.70;;
61905;SDS011;47863;55.766;37.672;2023-07-30T07:44:24;2.97;;;1.77;;
61905;SDS011;47863;55.766;37.672;2023-07-30T07:46:50;3.33;;;1.83;;
61905;SDS011;47863;55.766;37.672;2023-07-30T07:49:15;2.92;;;1.77;;
61905;SDS011;47863;55.766;37.672;2023-07-30T07:51:41;3.20;;;2.03;;
61905;SDS011;47863;55.766;37.672;2023-07-30T07:54:06;3.25;;;1.60;;
61905;SDS011;47863;55.766;37.672;2023-07-30T07:56:32;2.15;;;1.50;;
61905;SDS011;47863;55.766;37.672;2023-07-30T07:58:58;5.18;;;1.70;;
61905;SDS011;47863;55.766;37.672;2023-07-30T08:01:24;2.60;;;1.67;;
61905;SDS011;47863;55.766;37.672;2023-07-30T08:03:50;2.75;;;1.83;;
61905;SDS011;47863;55.766;37.672;2023-07-30T08:06:16;3.83;;;1.90;;
61905;SDS011;47863;55.766;37.672;2023-07-30T08:08:41;4.28;;;2.20;;
61905;SDS011;47863;55.766;37.672;2023-07-30T08:11:07;2.90;;;1.75;;
61905;SDS011;47863;55.766;37.672;2023-07-30T08:13:34;4.50;;;1.80;;
61905;SDS011;47863;55.766;37.672;2023-07-30T08:16:00;3.88;;;1.65;;
61905;SDS011;47863;55.766;37.672;2023-07-30T08:18:27;2.40;;;1.52;;
61905;SDS011;47863;55.766;37.672;2023-07-30T08:20:53;3.40;;;1.70;;
61905;SDS011;47863;55.766;37.672;2023-07-30T08:23:19;4.70;;;1.85;;
61905;SDS011;47863;55.766;37.672;2023-07-30T08:25:45;2.75;;;1.58;;
61905;SDS011;47863;55.766;37.672;2023-07-30T08:28:11;2.78;;;1.45;;
61905;SDS011;47863;55.766;37.672;2023-07-30T08:30:36;3.97;;;1.63;;
61905;SDS011;47863;55.766;37.672;2023-07-30T08:33:02;3.85;;;1.70;;
61905;SDS011;47863;55.766;37.672;2023-07-30T08:35:28;2.95;;;1.60;;
61905;SDS011;47863;55.766;37.672;2023-07-30T08:37:54;3.90;;;1.70;;
61905;SDS011;47863;55.766;37.672;2023-07-30T08:40:23;4.50;;;1.50;;
61905;SDS011;47863;55.766;37.672;2023-07-30T08:42:52;2.45;;;1.52;;
61905;SDS011;47863;55.766;37.672;2023-07-30T08:45:19;4.57;;;3.03;;
61905;SDS011;47863;55.766;37.672;2023-07-30T08:47:45;3.65;;;2.00;;
61905;SDS011;47863;55.766;37.672;2023-07-30T08:50:12;4.88;;;2.00;;
61905;SDS011;47863;55.766;37.672;2023-07-30T08:52:38;2.92;;;1.80;;
61905;SDS011;47863;55.766;37.672;2023-07-30T08:55:06;2.40;;;1.45;;
61905;SDS011;47863;55.766;37.672;2023-07-30T08:57:32;3.17;;;1.60;;
61905;SDS011;47863;55.766;37.672;2023-07-30T09:00:05;2.22;;;1.55;;
61905;SDS011;47863;55.766;37.672;2023-07-30T09:05:22;2.63;;;1.50;;
61905;SDS011;47863;55.766;37.672;2023-07-30T09:07:48;2.50;;;1.40;;
61905;SDS011;47863;55.766;37.672;2023-07-30T09:10:32;2.22;;;1.30;;
61905;SDS011;47863;55.766;37.672;2023-07-30T09:12:58;3.75;;;1.92;;
61905;SDS011;47863;55.766;37.672;2023-07-30T09:15:31;2.88;;;1.40;;
61905;SDS011;47863;55.766;37.672;2023-07-30T09:17:58;3.28;;;1.80;;
61905;SDS011;47863;55.766;37.672;2023-07-30T09:20:25;2.85;;;1.63;;
61905;SDS011;47863;55.766;37.672;2023-07-30T09:22:51;2.40;;;1.50;;
61905;SDS011;47863;55.766;37.672;2023-07-30T09:25:19;2.60;;;1.48;;
61905;SDS011;47863;55.766;37.672;2023-07-30T09:27:51;2.55;;;1.50;;
61905;SDS011;47863;55.766;37.672;2023-07-30T09:30:23;2.22;;;1.50;;
61905;SDS011;47863;55.766;37.672;2023-07-30T09:32:54;2.40;;;1.30;;
61905;SDS011;47863;55.766;37.672;2023-07-30T09:35:21;3.22;;;1.55;;
61905;SDS011;47863;55.766;37.672;2023-07-30T09:37:50;3.47;;;1.50;;
61905;SDS011;47863;55.766;37.672;2023-07-30T09:40:30;3.65;;;1.50;;
61905;SDS011;47863;55.766;37.672;2023-07-30T09:42:57;2.75;;;1.60;;
61905;SDS011;47863;55.766;37.672;2023-07-30T09:45:23;3.03;;;1.38;;
61905;SDS011;47863;55.766;37.672;2023-07-30T09:47:50;2.88;;;1.30;;
61905;SDS011;47863;55.766;37.672;2023-07-30T09:50:17;2.30;;;1.30;;
61905;SDS011;47863;55.766;37.672;2023-07-30T09:52:43;3.03;;;1.50;;
61905;SDS011;47863;55.766;37.672;2023-07-30T09:55:10;2.47;;;1.52;;
61905;SDS011;47863;55.766;37.672;2023-07-30T09:57:36;2.28;;;1.55;;
61905;SDS011;47863;55.766;37.672;2023-07-30T10:00:03;2.20;;;1.40;;
61905;SDS011;47863;55.766;37.672;2023-07-30T10:02:34;3.65;;;1.65;;
61905;SDS011;47863;55.766;37.672;2023-07-30T10:05:05;3.55;;;1.60;;
61905;SDS011;47863;55.766;37.672;2023-07-30T10:07:35;2.35;;;1.70;;
61905;SDS011;47863;55.766;37.672;2023-07-30T10:10:01;3.33;;;1.80;;
61905;SDS011;47863;55.766;37.672;2023-07-30T10:14:58;2.75;;;1.55;;
61905;SDS011;47863;55.766;37.672;2023-07-30T10:17:24;2.58;;;1.52;;
61905;SDS011;47863;55.766;37.672;2023-07-30T10:19:49;2.83;;;1.77;;
61905;SDS011;47863;55.766;37.672;2023-07-30T10:22:20;3.38;;;1.80;;
61905;SDS011;47863;55.766;37.672;2023-07-30T10:24:57;3.03;;;1.58;;
61905;SDS011;47863;55.766;37.672;2023-07-30T10:27:24;2.22;;;1.40;;
61905;SDS011;47863;55.766;37.672;2023-07-30T10:32:42;2.72;;;1.60;;
61905;SDS011;47863;55.766;37.672;2023-07-30T10:38:22;2.45;;;1.52;;
61905;SDS011;47863;55.766;37.672;2023-07-30T10:41:00;2.42;;;1.40;;
61905;SDS011;47863;55.766;37.672;2023-07-30T10:43:31;2.20;;;1.60;;
61905;SDS011;47863;55.766;37.672;2023-07-30T10:48:32;3.10;;;1.80;;
61905;SDS011;47863;55.766;37.672;2023-07-30T10:51:03;3.83;;;1.58;;
61905;SDS011;47863;55.766;37.672;2023-07-30T10:53:30;2.28;;;1.50;;
61905;SDS011;47863;55.766;37.672;2023-07-30T10:55:59;2.80;;;1.50;;
61905;SDS011;47863;55.766;37.672;2023-07-30T10:58:28;2.03;;;1.40;;
61905;SDS011;47863;55.766;37.672;2023-07-30T11:00:55;2.20;;;1.30;;
61905;SDS011;47863;55.766;37.672;2023-07-30T11:03:23;1.92;;;1.40;;
61905;SDS011;47863;55.766;37.672;2023-07-30T11:05:51;3.33;;;1.33;;
61905;SDS011;47863;55.766;37.672;2023-07-30T11:08:16;2.28;;;1.40;;
61905;SDS011;47863;55.766;37.672;2023-07-30T11:10:45;2.90;;;1.58;;
61905;SDS011;47863;55.766;37.672;2023-07-30T11:13:14;3.45;;;1.50;;
61905;SDS011;47863;55.766;37.672;2023-07-30T11:15:40;2.20;;;1.60;;
61905;SDS011;47863;55.766;37.672;2023-07-30T11:18:09;2.33;;;1.40;;
61905;SDS011;47863;55.766;37.672;2023-07-30T11:20:36;2.60;;;1.33;;
61905;SDS011;47863;55.766;37.672;2023-07-30T11:23:22;4.05;;;1.70;;
61905;SDS011;47863;55.766;37.672;2023-07-30T11:25:51;2.97;;;1.70;;
61905;SDS011;47863;55.766;37.672;2023-07-30T11:28:27;3.17;;;2.00;;
61905;SDS011;47863;55.766;37.672;2023-07-30T11:31:03;2.92;;;1.80;;
61905;SDS011;47863;55.766;37.672;2023-07-30T11:33:51;3.13;;;1.85;;
61905;SDS011;47863;55.766;37.672;2023-07-30T11:36:21;3.90;;;1.98;;
61905;SDS011;47863;55.766;37.672;2023-07-30T11:38:49;3.65;;;1.50;;
61905;SDS011;47863;55.766;37.672;2023-07-30T11:41:18;2.65;;;1.55;;
61905;SDS011;47863;55.766;37.672;2023-07-30T11:43:44;2.78;;;1.70;;
61905;SDS011;47863;55.766;37.672;2023-07-30T11:46:11;2.25;;;1.38;;
61905;SDS011;47863;55.766;37.672;2023-07-30T11:48:45;2.65;;;1.50;;
61905;SDS011;47863;55.766;37.672;2023-07-30T11:51:25;3.72;;;1.42;;
61905;SDS011;47863;55.766;37.672;2023-07-30T11:53:53;4.00;;;1.83;;
61905;SDS011;47863;55.766;37.672;2023-07-30T11:59:00;2.10;;;1.50;;
61905;SDS011;47863;55.766;37.672;2023-07-30T12:01:29;1.98;;;1.40;;
61905;SDS011;47863;55.766;37.672;2023-07-30T12:03:56;2.10;;;1.30;;
61905;SDS011;47863;55.766;37.672;2023-07-30T12:06:23;2.80;;;1.80;;
61905;SDS011;47863;55.766;37.672;2023-07-30T12:08:49;3.40;;;1.40;;
61905;SDS011;47863;55.766;37.672;2023-07-30T12:11:16;3.50;;;1.50;;
61905;SDS011;47863;55.766;37.672;2023-07-30T12:13:47;3.17;;;1.70;;
61905;SDS011;47863;55.766;37.672;2023-07-30T12:16:15;3.40;;;2.10;;
61905;SDS011;47863;55.766;37.672;2023-07-30T12:18:41;2.70;;;1.60;;
61905;SDS011;47863;55.766;37.672;2023-07-30T12:21:07;2.63;;;1.50;;
61905;SDS011;47863;55.766;37.672;2023-07-30T12:23:34;3.30;;;1.52;;
61905;SDS011;47863;55.766;37.672;2023-07-30T12:26:00;2.88;;;1.70;;
61905;SDS011;47863;55.766;37.672;2023-07-30T12:28:26;2.70;;;1.45;;
61905;SDS011;47863;55.766;37.672;2023-07-30T12:30:52;2.60;;;1.40;;
61905;SDS011;47863;55.766;37.672;2023-07-30T12:33:17;3.00;;;1.60;;
61905;SDS011;47863;55.766;37.672;2023-07-30T12:35:44;2.28;;;1.30;;
61905;SDS011;47863;55.766;37.672;2023-07-30T12:38:09;3.78;;;1.67;;
61905;SDS011;47863;55.766;37.672;2023-07-30T12:40:35;2.47;;;1.60;;
61905;SDS011;47863;55.766;37.672;2023-07-30T12:43:01;2.70;;;1.80;;
61905;SDS011;47863;55.766;37.672;2023-07-30T12:45:28;2.80;;;1.52;;
61905;SDS011;47863;55.766;37.672;2023-07-30T12:47:55;3.70;;;1.65;;
61905;SDS011;47863;55.766;37.672;2023-07-30T12:50:20;3.10;;;1.92;;
61905;SDS011;47863;55.766;37.672;2023-07-30T12:52:46;4.45;;;1.90;;
61905;SDS011;47863;55.766;37.672;2023-07-30T12:55:11;4.93;;;2.03;;
61905;SDS011;47863;55.766;37.672;2023-07-30T12:57:37;3.65;;;1.77;;
61905;SDS011;47863;55.766;37.672;2023-07-30T13:00:02;2.95;;;1.60;;
61905;SDS011;47863;55.766;37.672;2023-07-30T13:02:31;2.78;;;1.38;;
61905;SDS011;47863;55.766;37.672;2023-07-30T13:05:01;4.07;;;1.80;;
61905;SDS011;47863;55.766;37.672;2023-07-30T13:07:29;3.95;;;1.88;;
61905;SDS011;47863;55.766;37.672;2023-07-30T13:12:33;2.90;;;1.80;;
61905;SDS011;47863;55.766;37.672;2023-07-30T13:14:59;2.95;;;1.65;;
61905;SDS011;47863;55.766;37.672;2023-07-30T13:17:25;3.90;;;2.00;;
61905;SDS011;47863;55.766;37.672;2023-07-30T13:19:51;2.67;;;1.75;;
61905;SDS011;47863;55.766;37.672;2023-07-30T13:22:16;3.42;;;1.55;;
61905;SDS011;47863;55.766;37.672;2023-07-30T13:24:42;3.75;;;1.58;;
61905;SDS011;47863;55.766;37.672;2023-07-30T13:27:08;2.20;;;1.38;;
61905;SDS011;47863;55.766;37.672;2023-07-30T13:29:33;2.65;;;1.42;;
61905;SDS011;47863;55.766;37.672;2023-07-30T13:31:59;3.25;;;1.30;;
61905;SDS011;47863;55.766;37.672;2023-07-30T13:34:24;2.28;;;1.33;;
61905;SDS011;47863;55.766;37.672;2023-07-30T13:36:50;3.88;;;1.63;;
61905;SDS011;47863;55.766;37.672;2023-07-30T13:39:16;3.10;;;1.20;;
61905;SDS011;47863;55.766;37.672;2023-07-30T13:41:41;4.15;;;1.50;;
61905;SDS011;47863;55.766;37.672;2023-07-30T13:44:08;4.18;;;2.10;;
61905;SDS011;47863;55.766;37.672;2023-07-30T13:46:33;3.55;;;2.15;;
61905;SDS011;47863;55.766;37.672;2023-07-30T13:48:59;4.43;;;2.10;;
61905;SDS011;47863;55.766;37.672;2023-07-30T13:51:25;4.07;;;2.20;;
61905;SDS011;47863;55.766;37.672;2023-07-30T13:53:52;3.85;;;2.38;;
61905;SDS011;47863;55.766;37.672;2023-07-30T13:56:17;3.25;;;1.85;;
61905;SDS011;47863;55.766;37.672;2023-07-30T13:58:43;2.85;;;1.80;;
61905;SDS011;47863;55.766;37.672;2023-07-30T14:01:08;3.08;;;1.65;;
61905;SDS011;47863;55.766;37.672;2023-07-30T14:03:34;3.22;;;1.70;;
61905;SDS011;47863;55.766;37.672;2023-07-30T14:06:00;2.78;;;1.50;;
61905;SDS011;47863;55.766;37.672;2023-07-30T14:08:26;3.20;;;1.67;;
61905;SDS011;47863;55.766;37.672;2023-07-30T14:10:52;3.83;;;1.55;;
61905;SDS011;47863;55.766;37.672;2023-07-30T14:13:17;2.58;;;1.60;;
61905;SDS011;47863;55.766;37.672;2023-07-30T14:15:43;3.40;;;1.52;;
61905;SDS011;47863;55.766;37.672;2023-07-30T14:18:09;5.53;;;1.75;;
61905;SDS011;47863;55.766;37.672;2023-07-30T14:20:36;2.90;;;1.50;;
61905;SDS011;47863;55.766;37.672;2023-07-30T14:23:03;4.07;;;1.50;;
61905;SDS011;47863;55.766;37.672;2023-07-30T14:25:29;3.53;;;1.60;;
61905;SDS011;47863;55.766;37.672;2023-07-30T14:27:55;2.40;;;1.25;;
61905;SDS011;47863;55.766;37.672;2023-07-30T14:30:20;3.17;;;1.45;;
61905;SDS011;47863;55.766;37.672;2023-07-30T14:32:46;2.33;;;1.40;;
61905;SDS011;47863;55.766;37.672;2023-07-30T14:35:12;3.97;;;1.88;;
61905;SDS011;47863;55.766;37.672;2023-07-30T14:37:37;3.13;;;1.63;;
61905;SDS011;47863;55.766;37.672;2023-07-30T14:40:03;3.80;;;1.70;;
61905;SDS011;47863;55.766;37.672;2023-07-30T14:42:30;3.35;;;1.55;;
61905;SDS011;47863;55.766;37.672;2023-07-30T14:44:56;3.67;;;1.73;;
61905;SDS011;47863;55.766;37.672;2023-07-30T14:47:21;3.65;;;1.80;;
61905;SDS011;47863;55.766;37.672;2023-07-30T14:49:47;2.67;;;1.58;;